createdAt,value
2023-04-28T00:01:26.295Z,100886.03
2023-04-28T00:03:53.375Z,100889.94
2023-04-28T00:06:19.975Z,100881.84
2023-04-28T00:08:46.325Z,100872.00
2023-04-28T00:11:12.753Z,100878.69
2023-04-28T00:13:39.360Z,100877.28
2023-04-28T00:16:06.221Z,100872.50
2023-04-28T00:18:33.579Z,100863.63
2023-04-28T00:21:01.445Z,100853.59
2023-04-28T00:23:27.846Z,100856.84
2023-04-28T00:25:55.763Z,100850.16
2023-04-28T00:28:33.466Z,100845.84
2023-04-28T00:31:01.509Z,100847.63
2023-04-28T00:33:27.989Z,100850.84
2023-04-28T00:36:01.221Z,100846.34
2023-04-28T00:38:27.851Z,100843.47
2023-04-28T00:40:54.259Z,100832.91
2023-04-28T00:43:20.635Z,100823.44
2023-04-28T00:45:47.124Z,100824.44
2023-04-28T00:48:14.033Z,100829.78
2023-04-28T00:50:40.537Z,100814.78
2023-04-28T00:53:07.053Z,100812.72
2023-04-28T00:55:35.133Z,100815.38
2023-04-28T00:58:02.392Z,100805.63
2023-04-28T01:00:29.124Z,100805.97
2023-04-28T01:02:57.439Z,100806.69
2023-04-28T01:05:29.054Z,100805.84
2023-04-28T01:07:56.396Z,100802.81
2023-04-28T01:10:22.868Z,100811.59
2023-04-28T01:12:49.346Z,100815.69
2023-04-28T01:15:17.896Z,100810.25
2023-04-28T01:17:46.731Z,100801.97
2023-04-28T01:20:14.415Z,100808.38
2023-04-28T01:22:41.428Z,100795.19
2023-04-28T01:25:08.676Z,100805.50
2023-04-28T01:27:35.294Z,100797.78
2023-04-28T01:30:02.276Z,100793.56
2023-04-28T01:32:28.751Z,100796.03
2023-04-28T01:34:56.147Z,100793.69
2023-04-28T01:37:22.626Z,100787.09
2023-04-28T01:39:49.007Z,100785.69
2023-04-28T01:42:15.557Z,100774.25
2023-04-28T01:44:41.989Z,100777.53
2023-04-28T01:47:10.584Z,100781.03
2023-04-28T01:49:36.999Z,100782.88
2023-04-28T01:52:03.480Z,100788.97
2023-04-28T01:54:29.929Z,100789.69
2023-04-28T01:56:56.290Z,100790.53
2023-04-28T01:59:24.605Z,100798.53
2023-04-28T02:01:51.099Z,100788.91
2023-04-28T02:04:17.831Z,100783.63
2023-04-28T02:06:44.487Z,100784.59
2023-04-28T02:09:12.827Z,100777.66
2023-04-28T02:11:39.218Z,100760.47
2023-04-28T02:14:05.571Z,100764.28
2023-04-28T02:16:33.572Z,100769.50
2023-04-28T02:19:00.033Z,100768.75
2023-04-28T02:21:27.866Z,100758.34
2023-04-28T02:23:54.329Z,100762.94
2023-04-28T02:26:20.699Z,100753.31
2023-04-28T02:28:51.629Z,100750.25
2023-04-28T02:31:18.114Z,100753.88
2023-04-28T02:33:45.608Z,100756.91
2023-04-28T02:36:12.208Z,100754.06
2023-04-28T02:38:41.370Z,100754.72
2023-04-28T02:41:09.108Z,100756.53
2023-04-28T02:43:37.129Z,100759.09
2023-04-28T02:46:04.635Z,100746.72
2023-04-28T02:48:31.562Z,100749.84
2023-04-28T02:50:57.948Z,100746.41
2023-04-28T02:53:24.400Z,100747.25
2023-04-28T02:55:50.802Z,100742.22
2023-04-28T02:58:17.964Z,100752.78
2023-04-28T03:00:45.633Z,100748.22
2023-04-28T03:03:12.591Z,100740.13
2023-04-28T03:05:39.309Z,100734.63
2023-04-28T03:08:06.156Z,100740.03
2023-04-28T03:10:32.657Z,100731.47
2023-04-28T03:13:00.604Z,100725.44
2023-04-28T03:15:27.074Z,100723.75
2023-04-28T03:17:53.541Z,100728.28
2023-04-28T03:20:20.107Z,100725.72
2023-04-28T03:22:46.500Z,100719.44
2023-04-28T03:25:13.127Z,100715.16
2023-04-28T03:27:47.737Z,100716.38
2023-04-28T03:30:14.380Z,100712.19
2023-04-28T03:32:40.859Z,100705.81
2023-04-28T03:35:08.109Z,100705.81
2023-04-28T03:37:34.608Z,100707.53
2023-04-28T03:40:01.364Z,100704.00
2023-04-28T03:42:31.018Z,100697.91
2023-04-28T03:45:08.961Z,100686.13
2023-04-28T03:47:35.462Z,100678.47
2023-04-28T03:50:01.935Z,100675.16
2023-04-28T03:52:28.772Z,100675.81
2023-04-28T03:54:55.365Z,100664.97
2023-04-28T03:57:21.760Z,100664.97
2023-04-28T03:59:48.187Z,100657.47
2023-04-28T04:02:16.141Z,100652.41
2023-04-28T04:04:43.694Z,100660.03
2023-04-28T04:07:10.345Z,100653.94
2023-04-28T04:09:36.789Z,100651.09
2023-04-28T04:12:04.696Z,100647.56
2023-04-28T04:14:31.104Z,100650.72
2023-04-28T04:16:57.582Z,100640.72
2023-04-28T04:19:26.257Z,100643.66
2023-04-28T04:21:53.886Z,100645.97
2023-04-28T04:24:20.347Z,100633.69
2023-04-28T04:26:46.726Z,100623.66
2023-04-28T04:29:25.460Z,100630.81
2023-04-28T04:31:52.172Z,100643.78
2023-04-28T04:34:18.741Z,100658.31
2023-04-28T04:36:45.734Z,100647.50
2023-04-28T04:39:12.605Z,100655.38
2023-04-28T04:41:39.245Z,100645.47
2023-04-28T04:44:26.197Z,100644.34
2023-04-28T04:46:53.532Z,100642.25
2023-04-28T04:49:20.677Z,100639.38
2023-04-28T04:51:47.046Z,100644.69
2023-04-28T04:54:13.561Z,100637.38
2023-04-28T04:56:42.586Z,100642.59
2023-04-28T04:59:10.364Z,100643.78
2023-04-28T05:01:57.021Z,100638.22
2023-04-28T05:04:23.866Z,100642.44
2023-04-28T05:06:50.513Z,100633.47
2023-04-28T05:09:17.212Z,100637.75
2023-04-28T05:11:45.356Z,100635.91
2023-04-28T05:14:11.981Z,100628.09
2023-04-28T05:16:42.081Z,100627.25
2023-04-28T05:19:16.057Z,100632.13
2023-04-28T05:21:42.662Z,100627.63
2023-04-28T05:24:09.051Z,100629.34
2023-04-28T05:26:36.404Z,100623.34
2023-04-28T05:29:06.762Z,100624.78
2023-04-28T05:31:33.153Z,100613.97
2023-04-28T05:33:59.657Z,100607.72
2023-04-28T05:36:26.601Z,100608.56
2023-04-28T05:38:53.016Z,100608.34
2023-04-28T05:41:19.633Z,100608.56
2023-04-28T05:43:47.772Z,100603.84
2023-04-28T05:46:28.253Z,100598.13
2023-04-28T05:48:56.944Z,100593.88
2023-04-28T05:51:23.442Z,100593.88
2023-04-28T05:53:49.782Z,100598.06
2023-04-28T05:56:16.972Z,100594.25
2023-04-28T05:58:47.915Z,100592.66
2023-04-28T06:01:14.392Z,100595.97
2023-04-28T06:03:41.796Z,100595.88
2023-04-28T06:06:10.811Z,100593.88
2023-04-28T06:08:38.255Z,100586.59
2023-04-28T06:11:05.392Z,100590.69
2023-04-28T06:13:31.764Z,100586.94
2023-04-28T06:15:58.320Z,100589.31
2023-04-28T06:18:24.790Z,100588.88
2023-04-28T06:20:51.216Z,100591.53
2023-04-28T06:23:17.572Z,100589.84
2023-04-28T06:25:46.067Z,100587.63
2023-04-28T06:28:13.316Z,100585.56
2023-04-28T06:30:39.710Z,100579.81
2023-04-28T06:33:06.266Z,100576.06
2023-04-28T06:35:35.628Z,100580.25
2023-04-28T06:38:03.559Z,100573.41
2023-04-28T06:40:29.986Z,100577.91
2023-04-28T06:42:57.918Z,100581.00
2023-04-28T06:45:33.234Z,100582.06
2023-04-28T06:47:59.697Z,100562.03
2023-04-28T06:50:26.270Z,100560.97
2023-04-28T06:52:52.578Z,100557.34
2023-04-28T06:55:19.123Z,100558.63
2023-04-28T06:57:45.653Z,100555.28
2023-04-28T07:00:13.389Z,100546.81
2023-04-28T07:02:40.052Z,100534.25
2023-04-28T07:05:07.157Z,100538.41
2023-04-28T07:07:33.585Z,100541.00
2023-04-28T07:10:00.989Z,100536.56
2023-04-28T07:12:27.634Z,100544.66
2023-04-28T07:14:54.069Z,100523.75
2023-04-28T07:17:20.431Z,100514.34
2023-04-28T07:19:46.876Z,100528.50
2023-04-28T07:22:13.287Z,100534.50
2023-04-28T07:24:39.729Z,100544.03
2023-04-28T07:27:06.231Z,100533.47
2023-04-28T07:29:34.947Z,100527.91
2023-04-28T07:32:02.007Z,100534.97
2023-04-28T07:34:28.464Z,100532.06
2023-04-28T07:36:55.030Z,100537.78
2023-04-28T07:39:21.416Z,100533.16
2023-04-28T07:41:48.105Z,100533.06
2023-04-28T07:44:14.757Z,100533.78
2023-04-28T07:46:41.351Z,100531.00
2023-04-28T07:49:08.348Z,100537.34
2023-04-28T07:51:34.745Z,100531.09
2023-04-28T07:54:01.180Z,100537.81
2023-04-28T07:56:27.595Z,100543.19
2023-04-28T07:58:53.975Z,100538.88
2023-04-28T08:01:20.464Z,100536.66
2023-04-28T08:03:47.030Z,100528.72
2023-04-28T08:06:13.778Z,100513.41
2023-04-28T08:08:40.445Z,100512.66
2023-04-28T08:11:07.794Z,100507.53
2023-04-28T08:13:34.289Z,100520.38
2023-04-28T08:16:01.000Z,100511.03
2023-04-28T08:18:29.246Z,100509.44
2023-04-28T08:20:55.777Z,100506.59
2023-04-28T08:23:22.282Z,100509.22
2023-04-28T08:25:50.155Z,100510.13
2023-04-28T08:28:16.555Z,100507.97
2023-04-28T08:30:43.014Z,100499.31
2023-04-28T08:33:09.438Z,100505.22
2023-04-28T08:35:35.905Z,100503.44
2023-04-28T08:38:02.334Z,100496.75
2023-04-28T08:40:31.257Z,100491.00
2023-04-28T08:42:58.429Z,100496.81
2023-04-28T08:45:27.878Z,100487.50
2023-04-28T08:47:56.750Z,100494.63
2023-04-28T08:50:24.553Z,100484.47
2023-04-28T08:52:52.123Z,100491.13
2023-04-28T08:55:19.106Z,100493.41
2023-04-28T08:57:49.283Z,100494.69
2023-04-28T09:00:15.973Z,100486.59
2023-04-28T09:02:42.925Z,100478.72
2023-04-28T09:05:11.384Z,100476.03
2023-04-28T09:07:38.458Z,100482.28
2023-04-28T09:10:21.976Z,100484.25
2023-04-28T09:12:52.217Z,100481.78
2023-04-28T09:15:29.514Z,100481.25
2023-04-28T09:17:57.288Z,100480.53
2023-04-28T09:20:25.825Z,100475.47
2023-04-28T09:22:53.647Z,100479.88
2023-04-28T09:25:24.054Z,100479.16
2023-04-28T09:27:50.505Z,100479.75
2023-04-28T09:30:17.141Z,100481.31
2023-04-28T09:32:43.802Z,100482.84
2023-04-28T09:35:10.551Z,100483.69
2023-04-28T09:37:37.594Z,100480.97
2023-04-28T09:40:09.647Z,100480.41
2023-04-28T09:42:38.962Z,100479.69
2023-04-28T09:45:06.416Z,100482.13
2023-04-28T09:47:35.460Z,100488.22
2023-04-28T09:50:09.430Z,100486.53
2023-04-28T09:52:36.596Z,100485.97
2023-04-28T09:55:05.545Z,100478.88
2023-04-28T09:57:33.884Z,100462.97
2023-04-28T10:00:02.109Z,100462.13
2023-04-28T10:02:43.496Z,100466.22
2023-04-28T10:05:11.454Z,100460.84
2023-04-28T10:07:39.174Z,100461.53
2023-04-28T10:10:07.260Z,100465.06
2023-04-28T10:12:34.648Z,100456.16
2023-04-28T10:15:01.960Z,100459.84
2023-04-28T10:17:29.421Z,100457.28
2023-04-28T10:19:57.010Z,100455.31
2023-04-28T10:22:55.384Z,100455.47
2023-04-28T10:25:32.484Z,100458.16
2023-04-28T10:28:00.835Z,100453.47
2023-04-28T10:30:30.617Z,100458.88
2023-04-28T10:33:06.456Z,100457.13
2023-04-28T10:35:40.577Z,100458.56
2023-04-28T10:38:17.999Z,100449.50
2023-04-28T10:40:54.291Z,100449.63
2023-04-28T10:43:32.946Z,100455.00
2023-04-28T10:46:01.341Z,100453.63
2023-04-28T10:48:34.225Z,100451.34
2023-04-28T10:51:07.526Z,100451.66
2023-04-28T10:53:46.140Z,100455.44
2023-04-28T10:56:16.606Z,100442.53
2023-04-28T10:58:45.963Z,100448.66
2023-04-28T11:01:21.423Z,100449.34
2023-04-28T11:03:49.515Z,100447.34
2023-04-28T11:06:26.601Z,100453.31
2023-04-28T11:08:55.509Z,100453.03
2023-04-28T11:11:33.434Z,100446.25
2023-04-28T11:14:20.757Z,100447.50
2023-04-28T11:17:01.462Z,100447.34
2023-04-28T11:19:30.282Z,100445.78
2023-04-28T11:21:58.544Z,100447.63
2023-04-28T11:24:27.261Z,100445.06
2023-04-28T11:26:53.654Z,100449.31
2023-04-28T11:29:33.234Z,100445.94
2023-04-28T11:31:59.896Z,100453.03
2023-04-28T11:34:26.643Z,100447.22
2023-04-28T11:36:54.644Z,100451.03
2023-04-28T11:39:32.367Z,100454.28
2023-04-28T11:42:00.384Z,100453.44
2023-04-28T11:44:29.016Z,100454.59
2023-04-28T11:47:01.646Z,100455.00
2023-04-28T11:49:33.495Z,100455.59
2023-04-28T11:52:08.420Z,100447.22
2023-04-28T11:54:35.805Z,100452.91
2023-04-28T11:57:05.778Z,100456.72
2023-04-28T11:59:34.251Z,100450.91
2023-04-28T12:02:04.176Z,100459.56
2023-04-28T12:04:32.136Z,100449.63
2023-04-28T12:07:03.645Z,100454.88
2023-04-28T12:09:30.770Z,100446.06
2023-04-28T12:12:02.219Z,100451.75
2023-04-28T12:14:30.107Z,100461.50
2023-04-28T12:16:56.935Z,100454.84
2023-04-28T12:19:23.303Z,100451.72
2023-04-28T12:22:01.154Z,100455.00
2023-04-28T12:24:27.755Z,100451.03
2023-04-28T12:26:54.616Z,100454.44
2023-04-28T12:29:50.938Z,100453.72
2023-04-28T12:32:18.654Z,100452.31
2023-04-28T12:34:46.576Z,100456.72
2023-04-28T12:37:13.484Z,100458.41
2023-04-28T12:39:41.715Z,100464.50
2023-04-28T12:42:08.381Z,100456.44
2023-04-28T12:44:36.617Z,100456.56
2023-04-28T12:47:07.728Z,100454.72
2023-04-28T12:49:37.850Z,100456.13
2023-04-28T12:52:05.083Z,100456.44
2023-04-28T12:54:31.482Z,100457.44
2023-04-28T12:57:01.024Z,100455.88
2023-04-28T12:59:28.767Z,100458.88
2023-04-28T13:01:55.661Z,100445.66
2023-04-28T13:04:22.255Z,100443.50
2023-04-28T13:06:48.849Z,100442.25
2023-04-28T13:09:16.070Z,100428.41
2023-04-28T13:11:42.860Z,100416.38
2023-04-28T13:14:09.318Z,100419.91
2023-04-28T13:16:36.109Z,100422.16
2023-04-28T13:19:03.963Z,100432.50
2023-04-28T13:21:30.337Z,100430.97
2023-04-28T13:23:57.139Z,100426.03
2023-04-28T13:26:24.272Z,100431.34
2023-04-28T13:28:52.190Z,100424.03
2023-04-28T13:31:19.497Z,100421.19
2023-04-28T13:33:45.973Z,100414.97
2023-04-28T13:36:12.712Z,100416.69
2023-04-28T13:38:39.566Z,100409.44
2023-04-28T13:41:06.157Z,100410.59
2023-04-28T13:43:32.480Z,100402.25
2023-04-28T13:45:58.882Z,100404.09
2023-04-28T13:48:27.573Z,100392.84
2023-04-28T13:50:54.418Z,100391.38
2023-04-28T13:53:20.782Z,100389.69
2023-04-28T13:55:50.087Z,100395.47
2023-04-28T13:58:17.317Z,100396.06
2023-04-28T14:00:43.694Z,100397.41
2023-04-28T14:03:11.336Z,100389.13
2023-04-28T14:05:48.190Z,100386.66
2023-04-28T14:08:18.757Z,100386.41
2023-04-28T14:10:47.445Z,100394.16
2023-04-28T14:13:14.015Z,100392.31
2023-04-28T14:15:54.696Z,100386.59
2023-04-28T14:18:24.306Z,100381.81
2023-04-28T14:20:50.819Z,100384.13
2023-04-28T14:23:17.406Z,100380.59
2023-04-28T14:25:43.997Z,100376.59
2023-04-28T14:28:10.617Z,100374.34
2023-04-28T14:30:37.110Z,100387.28
2023-04-28T14:33:03.599Z,100386.13
2023-04-28T14:35:31.654Z,100380.81
2023-04-28T14:37:58.256Z,100375.72
2023-04-28T14:40:25.509Z,100378.78
2023-04-28T14:42:52.689Z,100381.97
2023-04-28T14:45:19.168Z,100381.34
2023-04-28T14:47:45.673Z,100382.63
2023-04-28T14:50:14.012Z,100386.84
2023-04-28T14:52:44.139Z,100382.00
2023-04-28T14:55:10.544Z,100389.50
2023-04-28T14:57:37.686Z,100386.34
2023-04-28T15:00:07.077Z,100389.47
2023-04-28T15:02:34.180Z,100382.38
2023-04-28T15:05:00.810Z,100388.75
2023-04-28T15:07:31.559Z,100374.53
2023-04-28T15:09:59.304Z,100386.91
2023-04-28T15:12:25.971Z,100389.13
2023-04-28T15:14:53.598Z,100387.44
2023-04-28T15:17:21.142Z,100390.53
2023-04-28T15:19:47.748Z,100384.50
2023-04-28T15:22:14.131Z,100392.94
2023-04-28T15:24:40.693Z,100393.91
2023-04-28T15:27:07.079Z,100392.84
2023-04-28T15:29:33.513Z,100413.16
2023-04-28T15:32:00.301Z,100414.50
2023-04-28T15:34:26.716Z,100424.75
2023-04-28T15:36:56.602Z,100440.47
2023-04-28T15:39:24.924Z,100435.72
2023-04-28T15:41:52.535Z,100435.31
2023-04-28T15:44:19.253Z,100444.75
2023-04-28T15:46:45.748Z,100446.94
2023-04-28T15:49:12.152Z,100449.88
2023-04-28T15:51:38.540Z,100448.19
2023-04-28T15:54:04.893Z,100462.41
2023-04-28T15:56:31.479Z,100459.13
2023-04-28T15:58:57.867Z,100444.25
2023-04-28T16:01:24.405Z,100449.34
2023-04-28T16:03:51.005Z,100446.22
2023-04-28T16:06:17.532Z,100446.22
2023-04-28T16:08:43.946Z,100464.09
2023-04-28T16:11:17.460Z,100468.75
2023-04-28T16:13:44.651Z,100467.91
2023-04-28T16:16:12.090Z,100470.78
2023-04-28T16:18:38.744Z,100476.16
2023-04-28T16:21:05.175Z,100476.59
2023-04-28T16:23:31.553Z,100475.72
2023-04-28T16:25:57.908Z,100478.41
2023-04-28T16:28:24.280Z,100472.75
2023-04-28T16:30:50.843Z,100476.44
2023-04-28T16:33:17.319Z,100485.53
2023-04-28T16:35:44.185Z,100474.69
2023-04-28T16:38:11.752Z,100479.22
2023-04-28T16:40:38.099Z,100476.97
2023-04-28T16:43:04.495Z,100476.56
2023-04-28T16:45:30.836Z,100479.28
2023-04-28T16:47:57.257Z,100472.75
2023-04-28T16:50:23.669Z,100470.19
2023-04-28T16:52:50.026Z,100475.72
2023-04-28T16:55:18.258Z,100475.88
2023-04-28T16:57:45.486Z,100477.88
2023-04-28T17:00:12.325Z,100479.88
2023-04-28T17:02:38.896Z,100490.22
2023-04-28T17:05:05.452Z,100494.28
2023-04-28T17:07:31.801Z,100488.22
2023-04-28T17:09:58.203Z,100499.53
2023-04-28T17:12:25.110Z,100498.13
2023-04-28T17:14:51.529Z,100493.44
2023-04-28T17:17:18.058Z,100500.50
2023-04-28T17:19:44.419Z,100505.47
2023-04-28T17:22:11.008Z,100500.50
2023-04-28T17:24:37.472Z,100501.63
2023-04-28T17:27:03.859Z,100498.38
2023-04-28T17:29:30.937Z,100500.75
2023-04-28T17:31:57.470Z,100512.25
2023-04-28T17:34:23.968Z,100507.41
2023-04-28T17:36:50.469Z,100528.94
2023-04-28T17:39:17.100Z,100523.53
2023-04-28T17:41:43.656Z,100526.78
2023-04-28T17:44:10.055Z,100519.56
2023-04-28T17:46:37.635Z,100520.56
2023-04-28T17:49:04.316Z,100520.81
2023-04-28T17:51:30.690Z,100516.25
2023-04-28T17:54:00.524Z,100521.94
2023-04-28T17:56:27.533Z,100520.38
2023-04-28T17:58:55.071Z,100520.97
2023-04-28T18:01:21.494Z,100525.06
2023-04-28T18:03:48.119Z,100524.94
2023-04-28T18:06:14.708Z,100522.66
2023-04-28T18:08:41.058Z,100520.97
2023-04-28T18:11:09.799Z,100522.94
2023-04-28T18:13:36.289Z,100530.84
2023-04-28T18:16:04.455Z,100536.50
2023-04-28T18:18:33.905Z,100537.50
2023-04-28T18:21:02.200Z,100543.31
2023-04-28T18:23:30.201Z,100543.81
2023-04-28T18:25:56.960Z,100551.97
2023-04-28T18:28:23.310Z,100548.38
2023-04-28T18:30:50.078Z,100549.78
2023-04-28T18:33:22.289Z,100552.03
2023-04-28T18:35:58.401Z,100557.88
2023-04-28T18:38:24.846Z,100556.91
2023-04-28T18:40:51.194Z,100564.25
2023-04-28T18:43:17.633Z,100555.72
2023-04-28T18:45:44.519Z,100550.88
2023-04-28T18:48:11.492Z,100562.47
2023-04-28T18:50:38.031Z,100559.78
2023-04-28T18:53:04.957Z,100557.69
2023-04-28T18:55:34.277Z,100563.66
2023-04-28T18:58:01.831Z,100559.66
2023-04-28T19:00:28.280Z,100559.50
2023-04-28T19:02:54.812Z,100557.81
2023-04-28T19:05:21.413Z,100568.19
2023-04-28T19:07:47.772Z,100566.06
2023-04-28T19:10:14.085Z,100568.56
2023-04-28T19:12:40.504Z,100562.19
2023-04-28T19:15:07.295Z,100563.31
2023-04-28T19:17:33.655Z,100568.84
2023-04-28T19:20:00.176Z,100577.25
2023-04-28T19:22:37.787Z,100580.06
2023-04-28T19:25:06.709Z,100583.25
2023-04-28T19:27:35.370Z,100586.94
2023-04-28T19:30:02.975Z,100586.94
2023-04-28T19:32:30.086Z,100592.31
2023-04-28T19:34:57.587Z,100593.31
2023-04-28T19:37:25.065Z,100593.31
2023-04-28T19:39:51.807Z,100596.00
2023-04-28T19:42:18.930Z,100589.16
2023-04-28T19:44:46.517Z,100591.41
2023-04-28T19:47:13.478Z,100591.63
2023-04-28T19:49:42.015Z,100585.88
2023-04-28T19:52:10.015Z,100592.50
2023-04-28T19:54:38.603Z,100594.19
2023-04-28T19:57:05.224Z,100599.56
2023-04-28T19:59:32.061Z,100592.25
2023-04-28T20:02:01.210Z,100586.53
2023-04-28T20:04:28.958Z,100598.84
2023-04-28T20:06:55.784Z,100601.53
2023-04-28T20:09:22.311Z,100603.50
2023-04-28T20:11:49.398Z,100606.78
2023-04-28T20:14:15.769Z,100607.19
2023-04-28T20:16:42.210Z,100609.25
2023-04-28T20:19:08.585Z,100601.91
2023-04-28T20:21:36.715Z,100598.50
2023-04-28T20:24:03.184Z,100602.44
2023-04-28T20:26:31.109Z,100603.56
2023-04-28T20:28:58.415Z,100599.16
2023-04-28T20:31:25.071Z,100606.25
2023-04-28T20:33:51.500Z,100607.09
2023-04-28T20:36:17.879Z,100601.44
2023-04-28T20:38:44.275Z,100609.31
2023-04-28T20:41:10.883Z,100607.34
2023-04-28T20:43:37.969Z,100604.78
2023-04-28T20:46:10.608Z,100609.16
2023-04-28T20:48:36.941Z,100601.63
2023-04-28T20:51:03.671Z,100605.81
2023-04-28T20:53:31.423Z,100599.19
2023-04-28T20:56:02.383Z,100601.88
2023-04-28T20:58:29.689Z,100598.97
2023-04-28T21:00:56.064Z,100610.09
2023-04-28T21:03:23.738Z,100600.06
2023-04-28T21:05:50.408Z,100607.53
2023-04-28T21:08:17.001Z,100599.13
2023-04-28T21:10:43.361Z,100602.78
2023-04-28T21:13:10.193Z,100609.00
2023-04-28T21:15:37.829Z,100604.63
2023-04-28T21:18:04.582Z,100605.63
2023-04-28T21:20:31.151Z,100603.78
2023-04-28T21:22:57.567Z,100611.22
2023-04-28T21:25:25.008Z,100602.31
2023-04-28T21:27:52.908Z,100616.38
2023-04-28T21:30:20.615Z,100616.59
2023-04-28T21:32:47.306Z,100618.53
2023-04-28T21:35:14.212Z,100619.66
2023-04-28T21:37:40.722Z,100621.63
2023-04-28T21:40:08.854Z,100622.34
2023-04-28T21:42:35.685Z,100622.69
2023-04-28T21:45:02.035Z,100617.22
2023-04-28T21:47:28.514Z,100628.06
2023-04-28T21:49:54.941Z,100631.00
2023-04-28T21:52:21.260Z,100626.25
2023-04-28T21:54:47.596Z,100628.59
2023-04-28T21:57:15.662Z,100633.34
2023-04-28T21:59:42.289Z,100624.69
2023-04-28T22:02:09.039Z,100624.06
2023-04-28T22:04:35.677Z,100621.53
2023-04-28T22:07:02.237Z,100629.69
2023-04-28T22:09:28.824Z,100630.06
2023-04-28T22:11:55.170Z,100630.91
2023-04-28T22:14:38.936Z,100643.63
2023-04-28T22:17:07.355Z,100637.25
2023-04-28T22:19:33.970Z,100643.97
2023-04-28T22:22:00.308Z,100644.06
2023-04-28T22:24:27.623Z,100637.22
2023-04-28T22:26:54.665Z,100656.47
2023-04-28T22:29:21.378Z,100647.34
2023-04-28T22:31:47.705Z,100657.81
2023-04-28T22:34:14.088Z,100655.59
2023-04-28T22:36:40.422Z,100649.63
2023-04-28T22:39:06.815Z,100651.34
2023-04-28T22:41:33.165Z,100646.56
2023-04-28T22:43:59.564Z,100657.53
2023-04-28T22:46:26.189Z,100665.69
2023-04-28T22:48:52.658Z,100668.72
2023-04-28T22:51:19.341Z,100665.81
2023-04-28T22:53:47.046Z,100673.09
2023-04-28T22:56:13.422Z,100676.03
2023-04-28T22:58:39.740Z,100670.16
2023-04-28T23:01:06.472Z,100680.06
2023-04-28T23:03:33.869Z,100689.06
2023-04-28T23:06:00.349Z,100680.63
2023-04-28T23:08:26.720Z,100685.25
2023-04-28T23:10:55.921Z,100684.00
2023-04-28T23:13:22.341Z,100686.06
2023-04-28T23:15:48.787Z,100683.50
2023-04-28T23:18:15.224Z,100683.84
2023-04-28T23:20:41.623Z,100683.84
2023-04-28T23:23:08.001Z,100682.13
2023-04-28T23:25:34.331Z,100683.22
2023-04-28T23:28:00.671Z,100680.88
2023-04-28T23:30:27.038Z,100685.38
2023-04-28T23:32:53.375Z,100685.47
2023-04-28T23:35:19.726Z,100684.63
2023-04-28T23:37:46.102Z,100694.75
2023-04-28T23:40:12.757Z,100688.75
2023-04-28T23:42:39.058Z,100689.81
2023-04-28T23:45:06.698Z,100695.94
2023-04-28T23:47:33.181Z,100686.28
2023-04-28T23:49:59.549Z,100693.59
2023-04-28T23:52:25.912Z,100708.06
2023-04-28T23:54:55.216Z,100701.88
2023-04-28T23:57:21.606Z,100710.34
2023-04-28T23:59:48.113Z,100708.63
